createdAt,value
2019-02-18T00:00:34.429Z,6.60
2019-02-18T00:03:01.693Z,5.65
2019-02-18T00:05:29.966Z,6.83
2019-02-18T00:07:57.424Z,6.97
2019-02-18T00:10:25.688Z,6.10
2019-02-18T00:12:53.869Z,6.47
2019-02-18T00:15:22.314Z,5.85
2019-02-18T00:17:50.405Z,6.12
2019-02-18T00:20:18.618Z,5.80
2019-02-18T00:22:47.400Z,5.67
2019-02-18T00:25:15.021Z,6.33
2019-02-18T00:27:43.115Z,5.60
2019-02-18T00:30:11.687Z,5.55
2019-02-18T00:32:38.886Z,5.35
2019-02-18T00:35:07.075Z,6.33
2019-02-18T00:37:35.005Z,6.00
2019-02-18T00:40:03.346Z,5.42
2019-02-18T00:42:31.397Z,5.30
2019-02-18T00:44:59.557Z,5.58
2019-02-18T00:47:27.855Z,5.97
2019-02-18T00:49:54.855Z,5.72
2019-02-18T00:52:22.983Z,5.70
2019-02-18T00:54:51.673Z,5.17
2019-02-18T00:57:18.927Z,6.15
2019-02-18T00:59:46.862Z,5.33
2019-02-18T01:02:14.971Z,5.35
2019-02-18T01:04:42.979Z,5.70
2019-02-18T01:07:11.166Z,5.53
2019-02-18T01:09:39.638Z,5.47
2019-02-18T01:12:08.485Z,5.75
2019-02-18T01:14:37.015Z,5.30
2019-02-18T01:17:04.223Z,5.22
2019-02-18T01:19:32.159Z,5.60
2019-02-18T01:22:00.079Z,5.87
2019-02-18T01:24:28.201Z,5.85
2019-02-18T01:26:57.598Z,5.90
2019-02-18T01:29:26.971Z,5.53
2019-02-18T01:31:54.781Z,5.35
2019-02-18T01:34:22.342Z,6.33
2019-02-18T01:36:50.422Z,5.50
2019-02-18T01:39:18.789Z,6.80
2019-02-18T01:41:47.325Z,5.05
2019-02-18T01:44:16.353Z,5.87
2019-02-18T01:46:43.887Z,5.17
2019-02-18T01:49:12.380Z,5.40
2019-02-18T01:51:41.339Z,5.55
2019-02-18T01:54:09.138Z,5.22
2019-02-18T01:56:38.054Z,5.00
2019-02-18T01:59:05.923Z,6.30
2019-02-18T02:01:34.382Z,6.03
2019-02-18T02:04:03.406Z,5.35
2019-02-18T02:06:31.818Z,5.67
2019-02-18T02:08:59.988Z,5.53
2019-02-18T02:11:28.833Z,5.17
2019-02-18T02:13:57.726Z,6.08
2019-02-18T02:16:26.018Z,6.55
2019-02-18T02:18:54.829Z,5.78
2019-02-18T02:21:22.212Z,5.70
2019-02-18T02:23:50.939Z,5.28
2019-02-18T02:26:19.732Z,5.15
2019-02-18T02:28:47.182Z,5.90
2019-02-18T02:31:15.784Z,5.85
2019-02-18T02:33:44.659Z,5.50
2019-02-18T02:36:12.941Z,5.97
2019-02-18T02:38:41.859Z,5.87
2019-02-18T02:41:09.044Z,5.55
2019-02-18T02:43:37.251Z,5.50
2019-02-18T02:46:05.468Z,5.33
2019-02-18T02:48:33.552Z,5.70
2019-02-18T02:51:01.828Z,5.50
2019-02-18T02:53:30.168Z,5.60
2019-02-18T02:55:58.524Z,5.67
2019-02-18T02:58:25.562Z,6.25
2019-02-18T03:00:54.008Z,5.90
2019-02-18T03:03:22.415Z,5.25
2019-02-18T03:05:49.733Z,6.12
2019-02-18T03:08:20.631Z,5.65
2019-02-18T03:10:47.988Z,5.85
2019-02-18T03:13:16.158Z,5.08
2019-02-18T03:15:44.746Z,6.28
2019-02-18T03:18:12.054Z,5.37
2019-02-18T03:20:40.039Z,5.78
2019-02-18T03:23:08.127Z,6.37
2019-02-18T03:25:37.819Z,5.90
2019-02-18T03:28:13.081Z,5.58
2019-02-18T03:30:54.268Z,5.50
2019-02-18T03:33:40.562Z,5.92
2019-02-18T03:36:07.755Z,5.62
2019-02-18T03:38:34.918Z,6.67
2019-02-18T03:41:03.471Z,5.55
2019-02-18T03:43:31.071Z,6.35
2019-02-18T03:45:59.317Z,5.15
2019-02-18T03:48:27.511Z,5.42
2019-02-18T03:50:56.028Z,5.35
2019-02-18T03:53:23.645Z,5.45
2019-02-18T03:55:51.850Z,6.15
2019-02-18T03:58:21.704Z,5.75
2019-02-18T04:00:49.991Z,5.97
2019-02-18T04:03:18.242Z,6.45
2019-02-18T04:05:47.143Z,6.00
2019-02-18T04:08:14.389Z,5.50
2019-02-18T04:10:47.220Z,5.33
2019-02-18T04:13:14.495Z,5.17
2019-02-18T04:15:43.330Z,5.90
2019-02-18T04:18:10.898Z,5.97
2019-02-18T04:20:37.985Z,5.62
2019-02-18T04:23:07.433Z,5.65
2019-02-18T04:25:36.331Z,5.92
2019-02-18T04:28:03.622Z,5.72
2019-02-18T04:30:32.530Z,6.05
2019-02-18T04:32:59.976Z,5.85
2019-02-18T04:35:28.786Z,5.50
2019-02-18T04:37:58.113Z,4.80
2019-02-18T04:40:25.634Z,5.60
2019-02-18T04:42:54.395Z,6.03
2019-02-18T04:45:23.355Z,6.25
2019-02-18T04:47:51.911Z,5.55
2019-02-18T04:50:19.484Z,5.87
2019-02-18T04:52:47.851Z,5.80
2019-02-18T04:55:16.537Z,6.25
2019-02-18T04:57:45.315Z,5.87
2019-02-18T05:00:14.047Z,6.10
2019-02-18T05:02:42.929Z,4.85
2019-02-18T05:05:11.422Z,6.00
2019-02-18T05:07:40.223Z,5.65
2019-02-18T05:10:08.711Z,5.70
2019-02-18T05:12:37.500Z,5.87
2019-02-18T05:15:06.460Z,5.97
2019-02-18T05:17:34.238Z,6.40
2019-02-18T05:20:03.627Z,6.17
2019-02-18T05:22:31.897Z,5.95
2019-02-18T05:25:00.386Z,5.78
2019-02-18T05:27:33.266Z,6.25
2019-02-18T05:29:58.434Z,7.10
2019-02-18T05:32:27.448Z,6.85
2019-02-18T05:34:55.742Z,6.87
2019-02-18T05:37:24.199Z,7.12
2019-02-18T05:39:55.393Z,6.50
2019-02-18T05:42:23.091Z,7.22
2019-02-18T05:44:51.828Z,6.80
2019-02-18T05:47:20.296Z,6.22
2019-02-18T05:49:47.884Z,6.25
2019-02-18T05:52:17.158Z,6.15
2019-02-18T05:54:45.849Z,6.58
2019-02-18T05:57:14.347Z,6.37
2019-02-18T05:59:42.577Z,6.10
2019-02-18T06:02:10.547Z,6.50
2019-02-18T06:04:38.645Z,6.12
2019-02-18T06:07:06.877Z,6.90
2019-02-18T06:09:35.346Z,6.90
2019-02-18T06:12:03.518Z,7.00
2019-02-18T06:14:31.650Z,6.67
2019-02-18T06:17:02.561Z,7.30
2019-02-18T06:19:29.090Z,7.10
2019-02-18T06:21:57.327Z,7.70
2019-02-18T06:24:25.615Z,7.05
2019-02-18T06:26:53.835Z,7.40
2019-02-18T06:29:22.952Z,7.53
2019-02-18T06:31:51.839Z,7.62
2019-02-18T06:34:20.888Z,8.43
2019-02-18T06:36:48.911Z,7.97
2019-02-18T06:39:17.087Z,6.85
2019-02-18T06:41:45.647Z,6.80
2019-02-18T06:44:15.161Z,7.10
2019-02-18T06:46:55.520Z,5.90
2019-02-18T06:49:25.031Z,6.53
2019-02-18T06:51:53.214Z,5.95
2019-02-18T06:54:20.442Z,6.42
2019-02-18T06:57:06.494Z,6.30
2019-02-18T06:59:37.932Z,5.97
2019-02-18T07:02:10.684Z,6.85
2019-02-18T07:05:04.095Z,6.37
2019-02-18T07:07:38.134Z,6.30
2019-02-18T07:10:38.258Z,6.45
2019-02-18T07:13:07.074Z,7.00
2019-02-18T07:15:35.860Z,6.58
2019-02-18T07:18:04.314Z,5.55
2019-02-18T07:20:37.794Z,6.53
2019-02-18T07:23:06.328Z,6.90
2019-02-18T07:25:34.664Z,7.00
2019-02-18T07:28:02.926Z,6.22
2019-02-18T07:30:31.018Z,7.00
2019-02-18T07:32:59.650Z,6.12
2019-02-18T07:35:27.650Z,5.65
2019-02-18T07:37:55.803Z,5.53
2019-02-18T07:40:23.901Z,6.62
2019-02-18T07:42:52.146Z,6.58
2019-02-18T07:45:20.209Z,6.40
2019-02-18T07:47:48.346Z,6.28
2019-02-18T07:50:20.731Z,6.60
2019-02-18T07:52:46.014Z,6.00
2019-02-18T07:55:14.100Z,6.60
2019-02-18T07:57:42.223Z,6.87
2019-02-18T08:00:13.942Z,7.00
2019-02-18T08:02:41.574Z,6.83
2019-02-18T08:05:08.759Z,7.37
2019-02-18T08:07:35.954Z,8.15
2019-02-18T08:10:11.724Z,7.80
2019-02-18T08:12:35.506Z,6.40
2019-02-18T08:15:04.422Z,7.45
2019-02-18T08:17:32.503Z,6.72
2019-02-18T08:20:00.577Z,6.75
2019-02-18T08:22:28.926Z,6.45
2019-02-18T08:24:57.214Z,6.75
2019-02-18T08:27:24.298Z,6.53
2019-02-18T08:29:52.506Z,6.15
2019-02-18T08:32:20.899Z,6.00
2019-02-18T08:34:49.410Z,6.15
2019-02-18T08:37:17.654Z,6.80
2019-02-18T08:39:45.190Z,5.92
2019-02-18T08:42:13.835Z,5.50
2019-02-18T08:44:41.018Z,6.12
2019-02-18T08:47:15.006Z,6.25
2019-02-18T08:49:42.256Z,5.78
2019-02-18T08:52:10.582Z,6.40
2019-02-18T08:54:38.942Z,5.62
2019-02-18T08:57:07.174Z,6.20
2019-02-18T08:59:34.866Z,5.60
2019-02-18T09:02:04.619Z,5.28
2019-02-18T09:04:32.784Z,5.80
2019-02-18T09:07:01.042Z,6.20
2019-02-18T09:09:28.464Z,6.10
2019-02-18T09:11:56.671Z,5.50
2019-02-18T09:14:27.497Z,5.10
2019-02-18T09:16:55.690Z,6.30
2019-02-18T09:19:23.865Z,5.47
2019-02-18T09:22:06.010Z,5.03
2019-02-18T09:24:42.207Z,6.05
2019-02-18T09:27:10.309Z,6.17
2019-02-18T09:29:38.504Z,6.15
2019-02-18T09:32:06.763Z,5.83
2019-02-18T09:34:35.978Z,5.60
2019-02-18T09:37:04.251Z,6.45
2019-02-18T09:39:32.568Z,5.70
2019-02-18T09:42:00.803Z,5.53
2019-02-18T09:44:29.108Z,5.60
2019-02-18T09:46:57.891Z,5.95
2019-02-18T09:49:27.334Z,5.83
2019-02-18T09:51:55.531Z,6.15
2019-02-18T09:54:24.022Z,5.37
2019-02-18T09:56:52.327Z,6.30
2019-02-18T09:59:20.499Z,6.12
2019-02-18T10:01:50.078Z,6.50
2019-02-18T10:04:18.086Z,5.35
2019-02-18T10:06:46.202Z,5.95
2019-02-18T10:09:13.739Z,5.95
2019-02-18T10:11:42.154Z,5.80
2019-02-18T10:14:09.392Z,5.78
2019-02-18T10:16:38.514Z,5.60
2019-02-18T10:19:06.830Z,5.33
2019-02-18T10:21:35.366Z,5.05
2019-02-18T10:24:03.886Z,5.20
2019-02-18T10:26:31.068Z,5.20
2019-02-18T10:28:59.442Z,5.87
2019-02-18T10:31:31.966Z,5.45
2019-02-18T10:33:59.236Z,5.10
2019-02-18T10:36:27.423Z,4.65
2019-02-18T10:38:56.131Z,5.67
2019-02-18T10:41:24.318Z,5.50
2019-02-18T10:43:56.990Z,6.13
2019-02-18T10:46:25.703Z,5.93
2019-02-18T10:48:54.298Z,5.10
2019-02-18T10:51:22.559Z,5.27
2019-02-18T10:53:50.746Z,5.87
2019-02-18T10:56:22.285Z,5.37
2019-02-18T10:58:50.492Z,5.53
2019-02-18T11:01:18.907Z,5.80
2019-02-18T11:03:46.122Z,5.73
2019-02-18T11:06:14.975Z,5.80
2019-02-18T11:08:45.303Z,5.70
2019-02-18T11:11:17.116Z,5.13
2019-02-18T11:13:43.723Z,5.50
2019-02-18T11:16:11.948Z,5.50
2019-02-18T11:18:39.934Z,5.37
2019-02-18T11:21:09.702Z,5.50
2019-02-18T11:23:37.992Z,4.77
2019-02-18T11:26:06.570Z,6.10
2019-02-18T11:28:34.771Z,5.63
2019-02-18T11:31:03.124Z,5.30
2019-02-18T11:33:33.287Z,5.20
2019-02-18T11:36:01.770Z,5.70
2019-02-18T11:38:29.969Z,5.50
2019-02-18T11:40:58.255Z,5.47
2019-02-18T11:43:26.744Z,5.53
2019-02-18T11:46:00.186Z,5.17
2019-02-18T11:48:27.343Z,5.03
2019-02-18T11:50:54.450Z,5.30
2019-02-18T11:53:22.723Z,5.30
2019-02-18T11:55:51.074Z,5.03
2019-02-18T11:58:22.826Z,4.23
2019-02-18T12:00:51.080Z,4.50
2019-02-18T12:03:18.394Z,5.20
2019-02-18T12:05:46.963Z,6.73
2019-02-18T12:08:15.172Z,4.83
2019-02-18T12:10:46.443Z,4.63
2019-02-18T12:13:13.686Z,5.10
2019-02-18T12:15:42.359Z,4.17
2019-02-18T12:18:13.679Z,4.70
2019-02-18T12:20:41.259Z,4.90
2019-02-18T12:23:10.378Z,5.03
2019-02-18T12:25:39.187Z,5.30
2019-02-18T12:28:08.363Z,4.93
2019-02-18T12:30:35.961Z,4.80
2019-02-18T12:33:05.313Z,4.70
2019-02-18T12:35:35.638Z,5.60
2019-02-18T12:38:04.626Z,4.53
2019-02-18T12:40:32.285Z,4.83
2019-02-18T12:43:00.971Z,5.03
2019-02-18T12:45:29.658Z,4.97
2019-02-18T12:48:01.847Z,4.70
2019-02-18T12:50:30.953Z,4.87
2019-02-18T12:52:59.550Z,5.40
2019-02-18T12:55:28.425Z,5.00
2019-02-18T12:57:56.623Z,4.90
2019-02-18T13:00:31.389Z,5.20
2019-02-18T13:02:58.948Z,4.73
2019-02-18T13:05:26.523Z,4.97
2019-02-18T13:07:54.170Z,4.50
2019-02-18T13:10:23.803Z,4.90
2019-02-18T13:12:55.110Z,4.50
2019-02-18T13:15:23.149Z,4.83
2019-02-18T13:17:51.986Z,5.70
2019-02-18T13:20:20.317Z,4.77
2019-02-18T13:22:48.954Z,5.40
2019-02-18T13:25:17.526Z,5.53
2019-02-18T13:27:49.010Z,4.83
2019-02-18T13:30:16.366Z,4.80
2019-02-18T13:32:44.983Z,4.83
2019-02-18T13:35:13.922Z,4.97
2019-02-18T13:37:43.038Z,4.80
2019-02-18T13:40:15.473Z,5.30
2019-02-18T13:42:45.233Z,4.60
2019-02-18T13:45:13.393Z,5.10
2019-02-18T13:47:42.017Z,4.83
2019-02-18T13:50:15.271Z,4.57
2019-02-18T13:52:42.914Z,5.07
2019-02-18T13:55:11.965Z,5.17
2019-02-18T13:57:41.327Z,5.03
2019-02-18T14:00:20.178Z,4.43
2019-02-18T14:02:48.242Z,4.60
2019-02-18T14:05:16.123Z,4.60
2019-02-18T14:07:43.923Z,4.97
2019-02-18T14:10:11.098Z,5.10
2019-02-18T14:12:39.422Z,4.77
2019-02-18T14:15:09.042Z,4.90
2019-02-18T14:17:37.381Z,5.00
2019-02-18T14:20:09.019Z,4.67
2019-02-18T14:22:37.831Z,4.90
2019-02-18T14:25:16.490Z,4.63
2019-02-18T14:27:44.177Z,5.47
2019-02-18T14:30:12.991Z,4.20
2019-02-18T14:32:40.805Z,4.90
2019-02-18T14:35:13.545Z,4.20
2019-02-18T14:37:41.983Z,4.80
2019-02-18T14:40:12.295Z,4.67
2019-02-18T14:42:40.187Z,4.70
2019-02-18T14:45:08.087Z,4.20
2019-02-18T14:47:43.460Z,5.07
2019-02-18T14:50:11.142Z,4.53
2019-02-18T14:52:38.594Z,4.20
2019-02-18T14:55:06.167Z,4.00
2019-02-18T14:57:34.042Z,4.60
2019-02-18T15:00:09.261Z,3.93
2019-02-18T15:02:36.292Z,4.63
2019-02-18T15:05:03.622Z,4.60
2019-02-18T15:07:30.782Z,4.67
2019-02-18T15:09:58.321Z,4.40
2019-02-18T15:12:32.926Z,4.40
2019-02-18T15:14:54.562Z,4.33
2019-02-18T15:17:21.683Z,4.50
2019-02-18T15:19:48.690Z,4.30
2019-02-18T15:22:15.818Z,4.23
2019-02-18T15:24:43.066Z,3.87
2019-02-18T15:27:10.574Z,4.23
2019-02-18T15:29:39.809Z,3.60
2019-02-18T15:32:07.425Z,4.60
2019-02-18T15:34:34.584Z,4.10
2019-02-18T15:37:01.746Z,5.03
2019-02-18T15:39:28.922Z,4.87
2019-02-18T15:41:56.354Z,4.87
2019-02-18T15:44:23.982Z,4.40
2019-02-18T15:46:51.169Z,4.70
2019-02-18T15:49:18.476Z,4.73
2019-02-18T15:51:46.742Z,4.27
2019-02-18T15:54:14.707Z,4.57
2019-02-18T15:56:42.782Z,4.90
2019-02-18T15:59:10.953Z,4.97
2019-02-18T16:01:39.473Z,5.13
2019-02-18T16:04:08.422Z,4.77
2019-02-18T16:06:37.068Z,5.10
2019-02-18T16:09:06.128Z,6.40
2019-02-18T16:11:34.924Z,5.30
2019-02-18T16:14:03.411Z,4.93
2019-02-18T16:16:32.805Z,5.17
2019-02-18T16:19:02.093Z,5.00
2019-02-18T16:21:29.968Z,5.00
2019-02-18T16:23:57.884Z,5.80
2019-02-18T16:26:26.158Z,4.90
2019-02-18T16:28:54.161Z,4.37
2019-02-18T16:31:21.608Z,4.67
2019-02-18T16:33:49.667Z,4.10
2019-02-18T16:36:18.674Z,3.67
2019-02-18T16:38:46.049Z,3.90
2019-02-18T16:41:14.035Z,4.40
2019-02-18T16:43:42.260Z,4.20
2019-02-18T16:46:10.382Z,4.97
2019-02-18T16:48:38.604Z,4.43
2019-02-18T16:51:07.105Z,4.30
2019-02-18T16:53:35.365Z,5.20
2019-02-18T16:56:03.625Z,4.50
2019-02-18T16:58:32.571Z,4.30
2019-02-18T17:01:00.544Z,4.00
2019-02-18T17:03:28.075Z,3.97
2019-02-18T17:05:57.914Z,3.60
2019-02-18T17:08:25.915Z,3.50
2019-02-18T17:10:53.577Z,3.97
2019-02-18T17:13:21.233Z,4.20
2019-02-18T17:15:48.490Z,3.77
2019-02-18T17:18:17.064Z,3.97
2019-02-18T17:20:45.036Z,4.73
2019-02-18T17:23:13.473Z,4.37
2019-02-18T17:25:40.645Z,4.27
2019-02-18T17:28:08.569Z,4.30
2019-02-18T17:30:41.553Z,3.87
2019-02-18T17:33:08.541Z,3.90
2019-02-18T17:35:36.723Z,3.93
2019-02-18T17:38:04.576Z,4.53
2019-02-18T17:40:32.705Z,3.93
2019-02-18T17:43:05.001Z,4.50
2019-02-18T17:45:31.956Z,4.53
2019-02-18T17:48:00.262Z,4.50
2019-02-18T17:50:28.624Z,4.50
2019-02-18T17:52:58.162Z,3.90
2019-02-18T17:55:32.534Z,4.90
2019-02-18T17:58:00.055Z,4.20
2019-02-18T18:00:29.415Z,4.40
2019-02-18T18:02:57.923Z,4.63
2019-02-18T18:05:26.403Z,4.60
2019-02-18T18:07:58.585Z,4.33
2019-02-18T18:10:26.851Z,4.37
2019-02-18T18:12:54.905Z,4.30
2019-02-18T18:15:23.115Z,3.90
2019-02-18T18:17:51.263Z,4.50
2019-02-18T18:20:19.913Z,4.77
2019-02-18T18:22:50.973Z,4.80
2019-02-18T18:25:18.151Z,4.97
2019-02-18T18:27:45.383Z,4.63
2019-02-18T18:30:14.708Z,4.70
2019-02-18T18:32:41.907Z,5.33
2019-02-18T18:35:13.595Z,5.50
2019-02-18T18:37:40.987Z,4.80
2019-02-18T18:40:10.439Z,4.50
2019-02-18T18:42:39.230Z,4.90
2019-02-18T18:45:08.926Z,5.00
2019-02-18T18:47:40.991Z,5.20
2019-02-18T18:50:12.367Z,5.13
2019-02-18T18:52:40.538Z,5.83
2019-02-18T18:55:09.628Z,5.23
2019-02-18T18:57:38.422Z,4.90
2019-02-18T19:00:12.197Z,5.10
2019-02-18T19:02:40.995Z,5.03
2019-02-18T19:05:12.909Z,5.43
2019-02-18T19:07:41.189Z,5.40
2019-02-18T19:10:16.428Z,5.53
2019-02-18T19:12:44.883Z,5.67
2019-02-18T19:15:13.341Z,5.50
2019-02-18T19:17:41.962Z,6.00
2019-02-18T19:20:19.620Z,6.00
2019-02-18T19:22:47.491Z,5.90
2019-02-18T19:25:15.900Z,5.67
2019-02-18T19:27:44.023Z,6.30
2019-02-18T19:30:15.974Z,5.75
2019-02-18T19:32:44.835Z,5.73
2019-02-18T19:35:12.508Z,5.95
2019-02-18T19:37:40.489Z,7.67
2019-02-18T19:40:09.931Z,6.65
2019-02-18T19:42:37.880Z,6.73
2019-02-18T19:45:08.983Z,5.70
2019-02-18T19:47:37.802Z,5.90
2019-02-18T19:50:08.102Z,5.83
2019-02-18T19:52:36.351Z,5.95
2019-02-18T19:55:05.385Z,6.10
2019-02-18T19:57:33.939Z,5.87
2019-02-18T20:00:01.440Z,6.10
2019-02-18T20:02:30.914Z,6.40
2019-02-18T20:04:58.335Z,6.62
2019-02-18T20:07:26.587Z,6.85
2019-02-18T20:09:53.726Z,5.42
2019-02-18T20:12:22.387Z,6.55
2019-02-18T20:14:50.484Z,5.80
2019-02-18T20:17:18.653Z,5.83
2019-02-18T20:19:47.616Z,6.80
2019-02-18T20:22:14.580Z,6.30
2019-02-18T20:24:43.432Z,6.75
2019-02-18T20:27:10.730Z,5.92
2019-02-18T20:29:39.508Z,6.50
2019-02-18T20:32:07.577Z,5.60
2019-02-18T20:34:36.038Z,5.75
2019-02-18T20:37:03.662Z,6.60
2019-02-18T20:39:31.642Z,6.57
2019-02-18T20:41:59.913Z,6.75
2019-02-18T20:44:28.476Z,5.95
2019-02-18T20:46:57.089Z,6.08
2019-02-18T20:49:27.186Z,6.58
2019-02-18T20:51:55.634Z,6.50
2019-02-18T20:54:23.955Z,6.20
2019-02-18T20:56:52.279Z,7.28
2019-02-18T20:59:21.726Z,6.60
2019-02-18T21:01:50.606Z,7.00
2019-02-18T21:04:18.259Z,7.22
2019-02-18T21:06:47.310Z,7.85
2019-02-18T21:09:16.898Z,7.67
2019-02-18T21:11:43.966Z,7.85
2019-02-18T21:14:16.146Z,7.58
2019-02-18T21:16:41.287Z,7.62
2019-02-18T21:19:09.542Z,7.10
2019-02-18T21:21:37.513Z,7.62
2019-02-18T21:24:05.858Z,8.50
2019-02-18T21:26:34.262Z,7.28
2019-02-18T21:29:01.314Z,7.20
2019-02-18T21:31:29.286Z,6.47
2019-02-18T21:34:01.209Z,7.25
2019-02-18T21:36:28.246Z,7.30
2019-02-18T21:38:55.194Z,7.25
2019-02-18T21:41:23.158Z,7.10
2019-02-18T21:43:51.252Z,6.87
2019-02-18T21:46:19.231Z,6.92
2019-02-18T21:48:47.483Z,7.78
2019-02-18T21:51:15.498Z,7.12
2019-02-18T21:53:43.106Z,7.03
2019-02-18T21:56:11.303Z,7.10
2019-02-18T21:58:39.378Z,8.10
2019-02-18T22:01:07.526Z,7.50
2019-02-18T22:03:36.954Z,7.45
2019-02-18T22:06:04.391Z,7.75
2019-02-18T22:08:31.520Z,7.85
2019-02-18T22:11:00.350Z,7.50
2019-02-18T22:13:28.286Z,7.42
2019-02-18T22:15:56.279Z,6.85
2019-02-18T22:18:24.285Z,8.20
2019-02-18T22:20:52.517Z,7.58
2019-02-18T22:23:21.381Z,8.20
2019-02-18T22:25:51.394Z,6.85
2019-02-18T22:28:19.778Z,7.75
2019-02-18T22:30:48.263Z,7.62
2019-02-18T22:33:16.594Z,6.85
2019-02-18T22:35:45.002Z,7.72
2019-02-18T22:38:12.966Z,7.40
2019-02-18T22:40:41.078Z,7.17
2019-02-18T22:43:08.995Z,7.40
2019-02-18T22:45:37.473Z,7.15
2019-02-18T22:48:05.547Z,7.00
2019-02-18T22:50:33.771Z,6.83
2019-02-18T22:53:01.847Z,7.85
2019-02-18T22:55:30.142Z,7.28
2019-02-18T22:57:58.111Z,7.72
2019-02-18T23:00:51.319Z,7.90
2019-02-18T23:03:20.925Z,7.47
2019-02-18T23:05:49.503Z,7.70
2019-02-18T23:08:18.843Z,7.30
2019-02-18T23:10:46.363Z,7.20
2019-02-18T23:13:14.561Z,7.17
2019-02-18T23:15:43.056Z,6.85
2019-02-18T23:18:11.108Z,6.45
2019-02-18T23:20:39.226Z,7.37
2019-02-18T23:23:07.891Z,6.65
2019-02-18T23:25:35.962Z,7.33
2019-02-18T23:28:04.434Z,6.83
2019-02-18T23:30:31.899Z,6.87
2019-02-18T23:33:00.218Z,7.10
2019-02-18T23:35:28.427Z,6.62
2019-02-18T23:37:57.322Z,7.25
2019-02-18T23:40:25.757Z,6.95
2019-02-18T23:42:53.214Z,6.75
2019-02-18T23:45:21.928Z,6.47
2019-02-18T23:47:52.566Z,6.08
2019-02-18T23:50:21.614Z,6.42
2019-02-18T23:52:48.665Z,6.58
2019-02-18T23:55:17.025Z,5.83
2019-02-18T23:57:45.345Z,6.45
